Time;durP1;ratioP1;P1;durP2;ratioP2;P2;SDS_P1;SDS_P2;PMS_P1;PMS_P2;Temp;Humidity;BMP_temperature;BMP_pressure;BME280_temperature;BME280_humidity;BME280_pressure;Samples;Min_cycle;Max_cycle;Signal;HPM_P1;HPM_P2
2022/05/20 00:00:21;;;;;;;8.15;3.20;;;;;;;15.62;45.98;100625.84;4430462;32;33527;-90
2022/05/20 00:02:49;;;;;;;6.60;2.50;;;;;;;15.78;45.63;100633.66;4443652;32;33931;-90
2022/05/20 00:05:19;;;;;;;8.13;3.00;;;;;;;15.64;45.92;100627.34;4443808;32;32431;-90
2022/05/20 00:07:47;;;;;;;7.20;2.55;;;;;;;15.69;45.64;100629.44;4442810;32;32824;-89
2022/05/20 00:10:18;;;;;;;5.30;2.55;;;;;;;15.71;45.43;100630.06;4442806;32;32190;-91
2022/05/20 00:12:46;;;;;;;6.60;2.40;;;;;;;15.82;45.15;100637.69;4443430;32;34439;-89
2022/05/20 00:15:18;;;;;;;7.00;2.30;;;;;;;15.54;45.70;100623.34;4442847;32;32111;-90
2022/05/20 00:17:47;;;;;;;6.53;2.20;;;;;;;15.67;45.22;100617.75;4442047;32;32900;-90
2022/05/20 00:20:19;;;;;;;4.87;2.47;;;;;;;15.62;45.35;100623.09;4442335;32;34509;-89
2022/05/20 00:22:48;;;;;;;6.07;2.42;;;;;;;15.56;45.76;100621.19;4442180;32;33774;-90
2022/05/20 00:28:04;;;;;;;6.53;2.50;;;;;;;15.62;45.66;100623.09;4444716;32;32076;-89
2022/05/20 00:30:33;;;;;;;5.87;2.42;;;;;;;15.54;45.63;100617.81;4442801;32;33807;-90
2022/05/20 00:33:02;;;;;;;5.30;2.25;;;;;;;15.54;45.61;100617.81;4442742;32;34276;-90
2022/05/20 00:35:29;;;;;;;5.28;2.50;;;;;;;15.33;46.16;100614.25;4442751;32;32198;-91
2022/05/20 00:38:00;;;;;;;6.75;2.28;;;;;;;15.37;46.01;100612.75;4443057;32;34245;-89
2022/05/20 00:40:28;;;;;;;5.32;2.28;;;;;;;15.40;45.67;100617.84;4443034;32;33267;-89
2022/05/20 00:43:13;;;;;;;5.62;2.55;;;;;;;15.43;45.58;100622.94;4429807;32;34009;-90
2022/05/20 00:45:43;;;;;;;5.32;2.33;;;;;;;15.24;45.86;100620.22;4442749;32;33449;-90
2022/05/20 00:48:17;;;;;;;5.32;2.33;;;;;;;15.18;46.16;100629.38;4442621;32;33023;-90
2022/05/20 00:50:49;;;;;;;5.68;2.35;;;;;;;15.31;45.82;100635.75;4455496;32;34553;-90
2022/05/20 00:53:22;;;;;;;5.22;2.40;;;;;;;15.19;46.21;100637.47;4442217;32;33989;-89
2022/05/20 00:55:50;;;;;;;4.57;2.40;;;;;;;15.26;46.08;100635.53;4454811;32;33998;-90
2022/05/20 00:58:20;;;;;;;5.12;2.30;;;;;;;15.12;46.39;100640.25;4441575;32;32049;-90
2022/05/20 01:00:51;;;;;;;5.50;2.45;;;;;;;15.13;46.20;100630.03;4453853;32;33886;-89
2022/05/20 01:03:27;;;;;;;4.65;2.00;;;;;;;15.18;46.00;100633.00;4430489;32;33771;-89
2022/05/20 01:05:55;;;;;;;4.68;2.10;;;;;;;15.13;46.19;100635.56;4443385;32;32560;-89
2022/05/20 01:08:29;;;;;;;5.82;2.47;;;;;;;15.07;46.44;100625.38;4456945;32;33594;-90
2022/05/20 01:11:00;;;;;;;4.72;2.53;;;;;;;14.95;46.40;100629.87;4443321;32;34086;-90
2022/05/20 01:13:30;;;;;;;4.75;2.60;;;;;;;15.02;46.18;100619.63;4443856;32;34830;-90
2022/05/20 01:16:02;;;;;;;5.18;2.40;;;;;;;14.96;46.57;100628.78;4443900;32;34510;-89
2022/05/20 01:18:36;;;;;;;4.57;2.30;;;;;;;14.87;47.04;100627.34;4444799;32;33386;-89
2022/05/20 01:21:06;;;;;;;5.32;2.60;;;;;;;14.90;46.75;100629.66;4444104;32;32089;-89
2022/05/20 01:23:38;;;;;;;6.10;2.33;;;;;;;14.95;46.50;100621.59;4456630;32;34375;-89
2022/05/20 01:26:08;;;;;;;5.70;2.55;;;;;;;14.78;46.75;100621.16;4443902;32;32949;-88
2022/05/20 01:28:36;;;;;;;4.93;2.30;;;;;;;14.93;46.19;100618.19;4443526;32;33635;-89
2022/05/20 01:31:12;;;;;;;5.03;2.37;;;;;;;14.97;45.98;100619.44;4430908;32;33403;-89
2022/05/20 01:33:47;;;;;;;4.93;2.42;;;;;;;14.91;45.93;100614.78;4443972;32;35410;-90
2022/05/20 01:36:19;;;;;;;5.83;2.43;;;;;;;14.94;46.06;100623.50;4430969;32;33575;-90
2022/05/20 01:38:53;;;;;;;9.88;2.30;;;;;;;14.89;46.66;100627.97;4443654;32;32955;-89
2022/05/20 01:41:37;;;;;;;5.12;2.60;;;;;;;14.90;46.58;100622.22;4443674;32;33918;-90
2022/05/20 01:44:14;;;;;;;5.03;2.45;;;;;;;14.78;46.78;100621.16;4455754;32;34412;-88
2022/05/20 01:46:42;;;;;;;4.47;2.28;;;;;;;14.93;45.95;100618.19;4470775;32;33853;-90
2022/05/20 01:49:18;;;;;;;6.15;2.30;;;;;;;14.90;45.94;100616.69;4443588;32;31979;-90
2022/05/20 01:52:13;;;;;;;4.87;2.50;;;;;;;14.82;46.56;100605.88;4456784;32;33782;-88
2022/05/20 01:55:03;;;;;;;5.25;2.28;;;;;;;14.81;46.50;100598.62;4457116;32;34415;-90
2022/05/20 01:57:39;;;;;;;5.37;2.45;;;;;;;14.63;46.88;100593.75;4443685;32;34054;-89
2022/05/20 02:00:16;;;;;;;5.53;2.40;;;;;;;14.56;47.07;100600.34;4443241;32;32051;-90
2022/05/20 02:02:48;;;;;;;5.28;2.67;;;;;;;14.57;47.05;100599.28;4431069;32;33362;-89
2022/05/20 02:05:29;;;;;;;6.22;2.53;;;;;;;14.65;46.67;100597.16;4470483;32;34486;-90
2022/05/20 02:08:21;;;;;;;4.75;2.37;;;;;;;14.60;47.08;100590.56;4443705;32;34272;-88
2022/05/20 02:10:56;;;;;;;5.47;2.35;;;;;;;14.66;46.89;100596.09;4443088;32;32359;-89
2022/05/20 02:13:27;;;;;;;5.40;2.65;;;;;;;14.55;47.32;100588.44;4442273;32;32312;-90
2022/05/20 02:16:00;;;;;;;5.53;2.85;;;;;;;14.57;47.10;100600.13;4443471;32;32953;-90
2022/05/20 02:18:33;;;;;;;5.10;2.20;;;;;;;14.19;47.97;100608.16;4443666;32;33798;-89
2022/05/20 02:21:09;;;;;;;5.65;2.30;;;;;;;14.25;47.91;100595.44;4443579;32;33401;-89
2022/05/20 02:23:42;;;;;;;5.07;2.37;;;;;;;14.41;47.61;100595.00;4430996;32;33038;-89
2022/05/20 02:26:16;;;;;;;5.12;2.20;;;;;;;14.37;47.59;100599.25;4456270;32;34053;-90
2022/05/20 02:28:57;;;;;;;5.60;2.47;;;;;;;14.30;47.71;100596.47;4443475;32;32293;-89
2022/05/20 02:31:33;;;;;;;5.75;2.70;;;;;;;14.28;47.64;100598.62;4443817;32;34423;-89
2022/05/20 02:34:04;;;;;;;6.18;2.30;;;;;;;14.22;47.91;100598.62;4443598;32;34239;-89
2022/05/20 02:36:33;;;;;;;5.43;2.20;;;;;;;14.23;47.97;100603.94;4442908;32;33846;-89
2022/05/20 02:39:06;;;;;;;4.53;2.20;;;;;;;14.31;47.57;100608.38;4443932;32;33527;-88
2022/05/20 02:41:35;;;;;;;5.32;2.28;;;;;;;14.12;48.04;100597.13;4430558;32;32356;-88
2022/05/20 02:44:08;;;;;;;6.90;2.83;;;;;;;14.17;47.87;100594.56;4443798;32;34528;-88
2022/05/20 02:46:39;;;;;;;3.60;2.08;;;;;;;14.17;47.80;100586.28;4431259;32;32812;-89
2022/05/20 02:49:08;;;;;;;6.93;2.40;;;;;;;14.27;47.44;100585.03;4431014;32;32688;-89
2022/05/20 02:51:39;;;;;;;5.43;2.20;;;;;;;14.12;47.81;100577.78;4443204;32;32253;-89
2022/05/20 02:54:09;;;;;;;4.57;2.30;;;;;;;14.22;47.60;100576.53;4443248;32;34040;-89
2022/05/20 02:56:38;;;;;;;5.68;2.67;;;;;;;14.11;47.92;100578.84;4430892;32;32745;-88
2022/05/20 03:04:43;;;;;;;4.57;2.20;;;;;;;13.77;48.82;100562.44;4458645;32;33762;-89
2022/05/20 03:07:13;;;;;;;6.05;2.30;;;;;;;13.94;48.17;100562.91;4431837;32;33662;-89
2022/05/20 03:09:47;;;;;;;4.55;2.30;;;;;;;13.86;48.25;100569.47;4448852;32;34497;-89
2022/05/20 03:12:21;;;;;;;4.50;2.20;;;;;;;13.97;47.69;100566.09;4448216;32;33644;-90
2022/05/20 03:14:49;;;;;;;5.65;2.62;;;;;;;13.76;48.41;100560.72;4448565;32;32004;-89
2022/05/20 03:17:17;;;;;;;7.50;2.85;;;;;;;13.74;48.47;100569.22;4433040;32;33870;-89
2022/05/20 03:19:46;;;;;;;7.53;2.67;;;;;;;13.87;48.18;100562.03;4444881;32;34684;-88
2022/05/20 03:22:17;;;;;;;6.90;2.40;;;;;;;13.82;48.71;100568.19;4432077;32;31420;-90
2022/05/20 03:24:50;;;;;;;5.78;2.03;;;;;;;13.91;48.46;100569.69;4444446;32;34537;-89
2022/05/20 03:27:21;;;;;;;4.87;2.37;;;;;;;14.00;48.31;100575.84;4444806;32;34443;-89
2022/05/20 03:29:52;;;;;;;5.53;2.67;;;;;;;14.07;48.21;100576.72;4444059;32;33917;-89
2022/05/20 03:32:22;;;;;;;6.03;2.60;;;;;;;14.05;48.36;100576.94;4444176;32;33689;-89
2022/05/20 03:34:55;;;;;;;6.25;2.33;;;;;;;13.95;48.80;100572.87;4443791;32;33920;-89
2022/05/20 03:37:26;;;;;;;5.95;3.00;;;;;;;14.03;48.71;100579.06;4443668;32;34607;-89
2022/05/20 03:39:57;;;;;;;5.43;2.60;;;;;;;14.04;48.65;100568.87;4443260;32;32834;-89
2022/05/20 03:42:25;;;;;;;4.87;2.60;;;;;;;14.02;48.67;100569.06;4431321;32;33751;-89
2022/05/20 03:44:53;;;;;;;5.53;2.12;;;;;;;14.03;48.67;100568.00;4442792;32;34283;-89
2022/05/20 03:47:23;;;;;;;5.20;2.55;;;;;;;14.04;48.64;100568.87;4443056;32;33550;-89
2022/05/20 03:49:54;;;;;;;7.50;2.50;;;;;;;13.93;49.26;100572.25;4443972;32;32627;-89
2022/05/20 03:52:25;;;;;;;5.60;2.70;;;;;;;14.01;49.01;100572.87;4444034;32;34153;-89
2022/05/20 03:54:56;;;;;;;4.93;2.25;;;;;;;14.06;49.09;100578.63;4443857;32;34450;-89
2022/05/20 03:57:24;;;;;;;6.55;2.62;;;;;;;14.43;47.60;100573.56;4456190;32;33999;-88
2022/05/20 03:59:54;;;;;;;6.35;2.75;;;;;;;14.39;47.40;100573.13;4430491;32;32709;-88
2022/05/20 04:02:25;;;;;;;7.05;2.12;;;;;;;13.91;49.28;100564.16;4443285;32;32902;-90
2022/05/20 04:04:59;;;;;;;5.18;2.17;;;;;;;13.97;49.69;100566.09;4443795;32;33943;-90
2022/05/20 04:07:33;;;;;;;5.65;2.28;;;;;;;14.10;49.26;100571.63;4443549;32;35258;-90
2022/05/20 04:10:06;;;;;;;6.93;2.83;;;;;;;13.99;49.80;100574.16;4456967;32;34877;-91
2022/05/20 04:12:40;;;;;;;6.15;2.70;;;;;;;13.96;49.79;100572.66;4442298;32;32302;-90
2022/05/20 04:15:11;;;;;;;6.80;2.70;;;;;;;14.28;50.17;100575.69;4442060;32;33386;-88
2022/05/20 04:17:41;;;;;;;9.32;2.75;;;;;;;14.43;49.96;100573.56;4442890;32;33975;-87
2022/05/20 04:20:09;;;;;;;5.75;2.80;;;;;;;14.53;50.13;100573.16;4442693;32;32867;-87
2022/05/20 04:22:39;;;;;;;6.68;2.97;;;;;;;14.52;49.82;100575.06;4430290;32;31917;-89
2022/05/20 04:25:08;;;;;;;5.80;2.58;;;;;;;14.70;49.23;100579.94;4443119;32;33453;-86
2022/05/20 04:27:39;;;;;;;5.68;2.70;;;;;;;14.93;48.01;100571.19;4455512;32;33886;-84
2022/05/20 04:30:10;;;;;;;8.40;2.62;;;;;;;14.78;48.64;100572.28;4427736;32;33269;-83
2022/05/20 04:32:40;;;;;;;6.50;3.10;;;;;;;14.89;50.75;100564.41;4453796;32;33760;-83
2022/05/20 04:35:09;;;;;;;6.85;2.95;;;;;;;15.01;49.68;100555.19;4441090;32;33631;-85
2022/05/20 04:37:36;;;;;;;5.57;3.00;;;;;;;14.98;49.72;100563.06;4439790;32;32890;-84
2022/05/20 04:40:14;;;;;;;6.18;2.90;;;;;;;15.10;49.19;100570.50;4441571;32;34136;-84
2022/05/20 04:48:17;;;;;;;7.25;2.80;;;;;;;15.18;50.91;100571.31;4455196;32;34003;-84
2022/05/20 04:50:48;;;;;;;8.30;3.10;;;;;;;15.35;50.24;100567.84;4442890;32;34783;-84
2022/05/20 04:54:49;;;;;;;5.87;3.00;;;;;;;15.33;50.17;100558.94;4442178;32;32126;-86
2022/05/20 04:56:09;;;;;;;7.12;3.20;;;;;;;15.49;49.64;100557.59;4444768;32;33348;-85
2022/05/20 04:58:39;;;;;;;7.80;2.80;;;;;;;15.54;49.33;100560.53;4455003;32;33665;-85
2022/05/20 05:01:08;;;;;;;6.35;3.10;;;;;;;15.67;49.03;100566.03;4429442;32;33552;-86
2022/05/20 05:03:36;;;;;;;9.13;3.10;;;;;;;15.78;49.13;100561.72;4429982;32;32402;-92
2022/05/20 05:06:04;;;;;;;7.28;2.90;;;;;;;15.73;50.32;100558.75;4423882;32;31905;-86
2022/05/20 05:08:38;;;;;;;12.37;3.37;;;;;;;15.81;50.71;100572.34;4426971;32;34472;-86
2022/05/20 05:11:09;;;;;;;9.43;3.03;;;;;;;15.98;50.58;100579.06;4438995;32;34188;-86
2022/05/20 05:13:40;;;;;;;7.93;2.97;;;;;;;16.14;49.92;100581.28;4426410;32;34229;-85
2022/05/20 05:16:08;;;;;;;11.35;3.37;;;;;;;16.17;49.92;100587.47;4426914;32;34395;-85
2022/05/20 05:18:38;;;;;;;9.60;4.50;;;;;;;16.26;48.22;100580.53;4426532;32;32830;-85
2022/05/20 05:21:12;;;;;;;11.63;5.82;;;;;;;16.36;48.44;100587.28;4414005;32;32521;-85
2022/05/20 05:23:40;;;;;;;14.10;8.20;;;;;;;16.41;49.33;100593.00;4425203;32;33679;-85
2022/05/20 05:26:11;;;;;;;10.95;4.07;;;;;;;16.50;48.92;100581.62;4411710;32;32244;-84
2022/05/20 05:28:39;;;;;;;36.08;18.67;;;;;;;16.67;48.29;100568.94;4424696;32;32758;-84
2022/05/20 05:31:06;;;;;;;14.48;8.13;;;;;;;16.76;48.17;100567.59;4425372;32;33048;-84
2022/05/20 05:33:38;;;;;;;7.72;4.35;;;;;;;16.87;48.22;100566.00;4425597;32;32921;-85
2022/05/20 05:36:12;;;;;;;8.88;3.42;;;;;;;17.00;48.03;100560.28;4425502;32;32002;-84
2022/05/20 05:38:42;;;;;;;9.13;3.22;;;;;;;16.98;48.65;100556.88;4439134;32;34725;-84
2022/05/20 05:41:13;;;;;;;13.95;3.78;;;;;;;17.21;48.26;100550.66;4426121;32;33337;-85
2022/05/20 05:43:44;;;;;;;10.98;4.20;;;;;;;17.31;47.75;100554.59;4426341;32;31904;-85
2022/05/20 05:46:14;;;;;;;8.65;3.28;;;;;;;17.40;47.05;100555.97;4426396;32;34162;-85
2022/05/20 05:48:45;;;;;;;8.55;4.00;;;;;;;17.53;45.58;100560.50;4428194;32;34356;-85
2022/05/20 05:51:13;;;;;;;11.55;4.43;;;;;;;17.62;44.89;100552.69;4415963;32;32660;-84
2022/05/20 05:53:41;;;;;;;10.50;5.28;;;;;;;17.80;42.64;100544.34;4428180;32;32065;-85
2022/05/20 05:56:13;;;;;;;10.57;4.15;;;;;;;17.93;40.25;100546.94;4430967;32;33864;-85
2022/05/20 05:58:40;;;;;;;5.53;2.75;;;;;;;17.96;39.38;100554.78;4444062;32;33294;-85
2022/05/20 06:01:10;;;;;;;6.57;3.58;;;;;;;18.20;37.90;100552.09;4432723;32;33953;-86
2022/05/20 06:03:42;;;;;;;6.97;2.37;;;;;;;18.25;38.19;100547.47;4433043;32;34254;-84
2022/05/20 06:06:09;;;;;;;5.97;2.50;;;;;;;18.65;35.85;100536.59;4429973;32;33910;-87
2022/05/20 06:08:37;;;;;;;7.03;2.40;;;;;;;18.70;35.67;100539.47;4428521;32;32761;-84
2022/05/20 06:11:10;;;;;;;8.05;2.45;;;;;;;18.68;36.52;100540.81;4428522;32;34227;-84
2022/05/20 06:13:39;;;;;;;8.55;2.45;;;;;;;18.82;36.30;100538.63;4441015;32;33354;-84
2022/05/20 06:16:07;;;;;;;6.18;2.50;;;;;;;19.06;37.40;100541.13;4427955;32;33260;-84
2022/05/20 06:18:41;;;;;;;5.85;2.30;;;;;;;19.30;35.27;100541.09;4428007;32;35138;-84
2022/05/20 06:21:14;;;;;;;4.47;2.17;;;;;;;19.38;37.58;100529.59;4428396;32;33330;-84
2022/05/20 06:23:45;;;;;;;6.50;2.42;;;;;;;19.60;37.10;100536.19;4428634;32;33223;-84
2022/05/20 06:26:14;;;;;;;8.57;2.75;;;;;;;19.80;36.53;100529.31;4428354;32;33184;-84
2022/05/20 06:28:47;;;;;;;5.28;2.12;;;;;;;19.96;36.31;100529.38;4441698;32;34617;-85
2022/05/20 06:31:18;;;;;;;6.32;2.17;;;;;;;19.91;32.68;100529.28;4428425;32;34835;-84
2022/05/20 06:33:46;;;;;;;5.07;2.20;;;;;;;20.15;33.10;100532.75;4428687;32;33514;-84
2022/05/20 06:41:46;;;;;;;7.75;1.90;;;;;;;20.43;35.86;100534.66;4430132;32;32915;-84
2022/05/20 06:44:15;;;;;;;7.60;2.35;;;;;;;20.60;37.10;100537.47;4428523;32;33730;-84
2022/05/20 06:46:43;;;;;;;7.68;2.28;;;;;;;20.57;37.62;100537.97;4428643;32;33683;-85
2022/05/20 06:49:11;;;;;;;9.68;3.58;;;;;;;20.69;37.28;100542.37;4428257;32;35103;-84
2022/05/20 06:51:39;;;;;;;9.20;4.05;;;;;;;20.78;35.85;100537.19;4415742;32;32290;-84
2022/05/20 06:54:09;;;;;;;7.78;4.05;;;;;;;20.81;35.58;100533.03;4415265;32;33030;-84
2022/05/20 06:56:37;;;;;;;9.00;2.58;;;;;;;20.83;34.27;100537.25;4428324;32;34761;-83
2022/05/20 06:59:09;;;;;;;6.95;2.72;;;;;;;20.88;34.48;100544.84;4427520;32;33116;-84
2022/05/20 07:01:37;;;;;;;5.05;2.45;;;;;;;21.10;34.42;100542.97;4428242;32;34696;-83
2022/05/20 07:04:06;;;;;;;8.90;2.60;;;;;;;21.07;34.06;100549.06;4415764;32;32319;-84
2022/05/20 07:06:35;;;;;;;7.12;2.78;;;;;;;20.98;33.34;100545.00;4415724;32;33097;-84
2022/05/20 07:09:04;;;;;;;7.93;2.80;;;;;;;21.11;34.19;100543.78;4428257;32;35027;-83
2022/05/20 07:11:32;;;;;;;8.68;2.80;;;;;;;21.26;34.64;100541.25;4428377;32;33945;-84
2022/05/20 07:14:03;;;;;;;15.07;4.75;;;;;;;21.26;35.36;100542.09;4428305;32;34411;-85
2022/05/20 07:16:31;;;;;;;9.20;3.20;;;;;;;21.27;35.61;100556.91;4427973;32;32951;-85
2022/05/20 07:18:59;;;;;;;8.35;2.58;;;;;;;21.39;34.52;100551.19;4434537;32;33784;-82
2022/05/20 07:21:27;;;;;;;6.57;2.60;;;;;;;21.61;32.61;100538.06;4440852;32;32937;-82
2022/05/20 07:23:57;;;;;;;7.47;2.42;;;;;;;21.58;33.27;100549.75;4453828;32;34211;-82
2022/05/20 07:26:30;;;;;;;4.95;2.50;;;;;;;21.82;32.36;100542.78;4441214;32;34689;-81
2022/05/20 07:28:58;;;;;;;7.90;2.35;;;;;;;21.76;32.60;100541.03;4453880;32;35063;-82
2022/05/20 07:31:28;;;;;;;5.82;1.92;;;;;;;21.84;31.61;100550.91;4440757;32;32433;-81
2022/05/20 07:33:56;;;;;;;4.60;2.00;;;;;;;22.14;30.42;100547.59;4440821;32;32643;-82
2022/05/20 07:36:27;;;;;;;5.00;2.28;;;;;;;22.18;30.62;100544.00;4440792;32;32384;-81
2022/05/20 07:38:59;;;;;;;6.07;2.17;;;;;;;22.49;30.06;100539.53;4453836;32;35145;-82
2022/05/20 07:41:27;;;;;;;7.28;2.40;;;;;;;22.51;30.02;100530.88;4453505;32;33886;-82
2022/05/20 07:43:55;;;;;;;8.82;2.28;;;;;;;22.62;30.12;100541.87;4440634;32;33670;-82
2022/05/20 07:46:25;;;;;;;6.90;2.67;;;;;;;22.67;30.20;100544.72;4440741;32;33270;-83
2022/05/20 07:48:54;;;;;;;5.40;2.40;;;;;;;22.65;29.81;100549.75;4440561;32;33900;-82
2022/05/20 07:51:27;;;;;;;7.53;2.58;;;;;;;22.66;29.65;100545.84;4440658;32;34767;-82
2022/05/20 07:53:57;;;;;;;8.13;4.12;;;;;;;23.00;29.54;100540.78;4440656;32;32889;-82
2022/05/20 07:56:35;;;;;;;8.68;4.53;;;;;;;22.84;29.74;100535.34;4453580;32;33595;-82
2022/05/20 07:59:13;;;;;;;8.70;3.47;;;;;;;23.00;30.40;100534.34;4453369;32;35199;-83
2022/05/20 08:01:44;;;;;;;4.85;2.12;;;;;;;23.22;30.61;100536.97;4453189;32;34559;-83
2022/05/20 08:07:05;;;;;;;5.50;2.50;;;;;;;23.12;29.96;100531.31;4453124;32;34207;-82
2022/05/20 08:09:38;;;;;;;5.28;2.25;;;;;;;23.32;30.48;100523.88;4440501;32;35453;-83
2022/05/20 08:12:10;;;;;;;5.37;2.25;;;;;;;23.57;30.24;100528.75;4440619;32;34126;-82
2022/05/20 08:14:48;;;;;;;6.20;1.80;;;;;;;23.56;30.12;100531.84;4429635;32;31805;-82
2022/05/20 08:17:21;;;;;;;6.82;2.67;;;;;;;23.69;29.79;100517.31;4440336;32;33767;-82
2022/05/20 08:19:56;;;;;;;8.73;2.40;;;;;;;23.88;29.59;100518.50;4440321;32;35237;-83
2022/05/20 08:22:26;;;;;;;5.07;2.50;;;;;;;23.88;29.69;100524.09;4440256;32;33897;-83
2022/05/20 08:24:58;;;;;;;4.75;2.12;;;;;;;24.03;30.09;100522.44;4440401;32;34348;-83
2022/05/20 08:27:29;;;;;;;9.30;2.00;;;;;;;24.01;29.07;100517.12;4454257;32;33876;-82
2022/05/20 08:30:04;;;;;;;9.35;2.47;;;;;;;24.02;29.18;100507.59;4440535;32;34384;-82
2022/05/20 08:32:34;;;;;;;5.25;2.72;;;;;;;24.23;29.74;100508.44;4440374;32;34764;-84
2022/05/20 08:35:04;;;;;;;8.25;2.10;;;;;;;24.31;29.34;100507.91;4440381;32;32666;-84
2022/05/20 08:37:36;;;;;;;6.82;2.20;;;;;;;24.53;28.92;100507.63;4427518;32;33203;-83
2022/05/20 08:40:07;;;;;;;4.37;2.03;;;;;;;24.62;28.23;100509.59;4452938;32;35256;-83
2022/05/20 08:42:34;;;;;;;6.55;1.95;;;;;;;24.79;28.10;100506.44;4440699;32;34155;-83
2022/05/20 08:45:10;;;;;;;4.45;2.22;;;;;;;24.96;28.47;100494.94;4428349;32;33608;-83
2022/05/20 08:47:44;;;;;;;4.95;2.22;;;;;;;25.05;28.45;100493.25;4440717;32;33976;-83
2022/05/20 08:50:42;;;;;;;5.10;2.60;;;;;;;25.32;27.52;100483.59;4453062;32;34603;-83
2022/05/20 08:53:40;;;;;;;6.62;2.28;;;;;;;25.28;27.50;100475.75;4440718;32;34386;-83
2022/05/20 08:56:14;;;;;;;3.28;1.80;;;;;;;25.34;27.05;100479.38;4439778;32;33542;-82
2022/05/20 08:59:09;;;;;;;11.23;2.35;;;;;;;25.43;26.97;100472.00;4439950;32;34451;-83
2022/05/20 09:01:43;;;;;;;7.57;2.25;;;;;;;25.72;26.59;100474.97;4436103;32;35161;-83
2022/05/20 09:04:14;;;;;;;4.70;1.87;;;;;;;25.95;26.46;100466.97;4427169;32;32672;-83
2022/05/20 09:07:03;;;;;;;6.18;2.12;;;;;;;26.16;26.08;100460.03;4439693;32;31964;-83
2022/05/20 09:09:52;;;;;;;4.50;1.87;;;;;;;26.23;26.50;100454.91;4453472;32;33751;-83
2022/05/20 09:12:31;;;;;;;4.50;2.05;;;;;;;26.50;26.02;100445.97;4439581;32;32888;-83
2022/05/20 09:18:25;;;;;;;5.93;4.03;;;;;;;26.78;25.65;100435.81;4448671;32;245847;-84
2022/05/20 09:20:53;;;;;;;5.00;2.70;;;;;;;26.65;26.26;100447.81;4454727;32;33717;-83
2022/05/20 09:23:23;;;;;;;8.05;4.75;;;;;;;26.57;25.78;100444.50;4443752;32;34358;-83
2022/05/20 09:26:06;;;;;;;8.88;3.35;;;;;;;26.83;26.02;100444.19;4445171;32;32739;-84
2022/05/20 09:28:45;;;;;;;9.93;5.85;;;;;;;26.98;25.98;100443.22;4457228;32;33461;-83
2022/05/20 09:31:22;;;;;;;6.25;2.92;;;;;;;27.26;26.02;100422.59;4445365;32;33909;-83
2022/05/20 09:34:16;;;;;;;5.00;2.10;;;;;;;27.35;26.01;100428.38;4445535;32;34466;-83
2022/05/20 09:36:44;;;;;;;8.88;2.30;;;;;;;27.61;25.42;100426.91;4445776;32;33992;-84
2022/05/20 09:39:18;;;;;;;5.00;2.28;;;;;;;27.73;25.00;100424.47;4448419;32;32887;-82
2022/05/20 09:41:50;;;;;;;6.25;2.30;;;;;;;27.87;25.47;100428.22;4448230;32;31678;-83
2022/05/20 09:44:25;;;;;;;5.18;2.35;;;;;;;28.09;24.94;100415.41;4461484;32;33623;-83
2022/05/20 09:47:24;;;;;;;6.12;2.53;;;;;;;28.06;24.99;100416.87;4460477;32;34825;-84
2022/05/20 09:50:06;;;;;;;9.10;2.35;;;;;;;28.43;24.63;100424.47;4456711;32;34089;-84
2022/05/20 09:52:40;;;;;;;7.40;2.30;;;;;;;28.48;25.19;100418.72;4446151;32;33396;-84
2022/05/20 09:55:14;;;;;;;4.72;2.40;;;;;;;28.75;24.79;100422.72;4472698;32;34700;-84
2022/05/20 09:57:49;;;;;;;8.73;2.37;;;;;;;28.86;24.45;100432.69;4457952;32;32536;-84
2022/05/20 10:00:26;;;;;;;5.95;2.10;;;;;;;28.88;23.87;100426.72;4444403;32;32003;-84
2022/05/20 10:03:06;;;;;;;5.32;2.17;;;;;;;29.03;23.79;100430.09;4445578;32;33933;-84
2022/05/20 10:05:52;;;;;;;8.30;2.65;;;;;;;29.08;23.68;100420.69;4443773;32;35310;-83
2022/05/20 10:08:37;;;;;;;5.00;2.35;;;;;;;29.33;23.88;100417.28;4471150;32;34835;-83
2022/05/20 10:11:07;;;;;;;9.15;2.50;;;;;;;29.25;23.22;100409.53;4438472;32;33479;-82
2022/05/20 10:13:38;;;;;;;5.20;2.08;;;;;;;29.64;23.78;100408.97;4413185;32;33882;-83
2022/05/20 10:16:32;;;;;;;4.53;2.30;;;;;;;29.84;23.25;100399.19;4438561;32;34433;-83
2022/05/20 10:19:20;;;;;;;5.32;2.35;;;;;;;30.02;23.77;100403.81;4441153;32;34062;-82
2022/05/20 10:21:51;;;;;;;9.50;2.42;;;;;;;29.97;23.83;100398.25;4415665;32;32545;-83
2022/05/20 10:24:48;;;;;;;5.57;2.42;;;;;;;29.94;22.69;100398.91;4441202;32;34062;-84
2022/05/20 10:27:31;;;;;;;9.23;2.25;;;;;;;30.19;22.87;100386.13;4441178;32;33443;-84
2022/05/20 10:33:01;;;;;;;8.13;2.35;;;;;;;30.73;22.92;100384.09;4443216;32;34162;-83
2022/05/20 10:36:10;;;;;;;6.65;2.42;;;;;;;30.55;23.42;100393.69;4440528;32;34535;-83
2022/05/20 10:39:09;;;;;;;7.85;1.92;;;;;;;30.94;22.42;100390.88;4419241;32;34076;-83
2022/05/20 10:42:36;;;;;;;4.80;1.98;;;;;;;30.84;21.90;100391.16;4420577;32;33532;-82
2022/05/20 10:48:35;;;;;;;7.20;2.30;;;;;;;31.27;21.59;100384.81;4430154;32;33043;-83
2022/05/20 10:51:16;;;;;;;6.43;2.60;;;;;;;31.52;21.77;100381.19;4416972;32;33916;-84
2022/05/20 10:58:07;;;;;;;4.90;2.65;;;;;;;31.63;22.59;100376.03;4407276;32;32462;-84
2022/05/20 11:01:01;;;;;;;5.22;2.40;;;;;;;31.88;21.82;100363.00;4397070;32;32021;-83
2022/05/20 11:04:01;;;;;;;7.35;2.50;;;;;;;32.11;22.13;100373.00;4397116;32;33045;-84
2022/05/20 11:06:38;;;;;;;11.25;5.47;;;;;;;32.09;22.72;100367.66;4397345;32;34949;-84
2022/05/20 11:12:39;;;;;;;7.85;4.72;;;;;;;32.05;21.01;100360.16;4378851;32;32276;-85
2022/05/20 11:15:25;;;;;;;6.18;2.62;;;;;;;32.40;22.59;100363.78;4406549;32;34191;-84
2022/05/20 11:18:03;;;;;;;8.25;3.15;;;;;;;32.58;20.79;100348.31;4394053;32;32805;-84
2022/05/20 11:21:18;;;;;;;14.10;2.50;;;;;;;32.69;21.19;100345.94;4409610;32;33391;-84
2022/05/20 11:24:36;;;;;;;9.73;5.60;;;;;;;32.99;21.24;100338.31;4408855;32;33648;-84
2022/05/20 11:27:08;;;;;;;7.45;2.70;;;;;;;32.85;20.20;100329.19;4409158;32;33665;-89
2022/05/20 11:29:56;;;;;;;9.13;2.62;;;;;;;33.00;20.17;100337.12;4387177;32;33122;-90
2022/05/20 11:33:07;;;;;;;5.87;2.37;;;;;;;32.67;20.13;100334.91;4396953;32;34403;-90
2022/05/20 11:36:15;;;;;;;38.38;4.55;;;;;;;33.12;20.90;100328.69;4407094;32;34337;-88
2022/05/20 11:39:06;;;;;;;6.47;2.55;;;;;;;33.25;21.38;100323.88;4393027;32;32859;-90
2022/05/20 11:41:40;;;;;;;6.80;2.65;;;;;;;32.90;20.74;100323.28;4397335;32;33763;-90
2022/05/20 11:51:01;;;;;;;10.73;2.97;;;;;;;33.18;20.82;100312.22;4338965;33;34066;-84
2022/05/20 11:53:43;;;;;;;8.88;2.83;;;;;;;33.17;21.11;100299.19;4401410;32;34125;-84
2022/05/20 11:56:25;;;;;;;13.85;3.20;;;;;;;33.44;20.48;100300.69;4381384;32;33265;-85
2022/05/20 11:59:17;;;;;;;58.03;7.03;;;;;;;33.33;19.91;100295.41;4393956;32;32393;-85
2022/05/20 12:02:16;;;;;;;16.27;3.45;;;;;;;33.67;20.54;100293.44;4384486;32;33341;-85
2022/05/20 12:05:10;;;;;;;25.60;3.97;;;;;;;32.95;20.86;100292.66;4375056;32;33035;-85
2022/05/20 12:07:42;;;;;;;17.75;3.90;;;;;;;33.60;21.38;100287.50;4382125;32;34291;-85
2022/05/20 12:10:39;;;;;;;5.40;2.55;;;;;;;33.42;20.99;100295.34;4393510;32;33836;-85
2022/05/20 12:13:34;;;;;;;11.50;3.12;;;;;;;33.60;20.43;100278.94;4428687;32;33240;-84
2022/05/20 12:16:09;;;;;;;11.55;2.62;;;;;;;33.66;20.89;100278.38;4433144;32;32644;-86
2022/05/20 12:24:47;;;;;;;9.88;3.00;;;;;;;34.10;21.11;100267.37;4454295;32;34113;-83
2022/05/20 12:27:22;;;;;;;31.55;4.87;;;;;;;33.88;20.51;100268.63;4453334;32;34960;-86
2022/05/20 12:30:20;;;;;;;100.25;13.88;;;;;;;33.94;20.26;100264.37;4440606;32;31910;-87
2022/05/20 12:32:59;;;;;;;24.83;4.62;;;;;;;33.55;20.88;100262.09;4436436;32;32461;-86
2022/05/20 12:35:54;;;;;;;13.57;4.00;;;;;;;33.45;21.32;100265.34;4427810;32;33008;-85
2022/05/20 12:39:20;;;;;;;8.35;2.55;;;;;;;33.08;22.01;100262.28;4440698;32;33582;-85
2022/05/20 12:41:51;;;;;;;6.10;2.80;;;;;;;33.02;22.33;100258.81;4453324;32;33718;-85
2022/05/20 12:44:20;;;;;;;6.53;2.33;;;;;;;33.26;21.23;100248.72;4453301;32;33765;-85
2022/05/20 12:47:15;;;;;;;9.52;2.50;;;;;;;33.28;21.42;100247.25;4454367;32;34668;-85
2022/05/20 12:49:51;;;;;;;9.98;2.85;;;;;;;33.30;21.69;100250.56;4453487;32;33732;-85
2022/05/20 12:52:54;;;;;;;26.02;4.62;;;;;;;32.55;21.80;100255.22;4427515;32;32086;-86